We bring you up!

Munich Aviation Company

Munich Aviation Company

Munich Aviation Company

Munich Aviation Company

Sie finden uns auch auf: Munich Aviation Company auf Instagram

Flugwetter Augsburg

[Quelle: ADDS]
METAR
EDMA 150420Z AUTO 25011KT 9999 BKN140/// 20/12 Q1008 =
EDMA 141700Z 1418/1503 VRB03KT CAVOK BECMG 1423/1501 25005KT
TAF
EDMA 141700Z 1418/1503 VRB03KT CAVOK BECMG 1423/1501 25005KT =

Kontakt